Time;durP1;ratioP1;P1;durP2;ratioP2;P2;SDS_P1;SDS_P2;PMS_P1;PMS_P2;Temp;Humidity;BMP_temperature;BMP_pressure;BME280_temperature;BME280_humidity;BME280_pressure;Samples;Min_cycle;Max_cycle;Signal;HPM_P1;HPM_P2
2022/01/07 00:01:35;;;;;;;20.08;6.45;;;;;;;;;;5012280;28;20029;-70
2022/01/07 00:04:02;;;;;;;21.42;7.43;;;;;;;;;;5012184;28;20112;-71
2022/01/07 00:06:29;;;;;;;13.60;5.15;;;;;;;;;;5013623;28;20036;-72
2022/01/07 00:08:55;;;;;;;19.45;6.30;;;;;;;;;;5011875;28;20113;-70
2022/01/07 00:11:21;;;;;;;18.30;5.82;;;;;;;;;;5010921;28;20061;-70
2022/01/07 00:13:47;;;;;;;17.63;5.90;;;;;;;;;;5014466;28;20109;-72
2022/01/07 00:16:14;;;;;;;15.68;5.32;;;;;;;;;;5010717;28;20021;-72
2022/01/07 00:18:43;;;;;;;12.27;4.82;;;;;;;;;;5010923;28;20030;-71
2022/01/07 00:21:09;;;;;;;18.90;5.40;;;;;;;;;;5010958;28;20044;-70
2022/01/07 00:23:35;;;;;;;17.65;6.32;;;;;;;;;;5015224;28;20113;-70
2022/01/07 00:26:02;;;;;;;17.08;6.25;;;;;;;;;;5010444;28;20121;-69
2022/01/07 00:28:28;;;;;;;13.00;5.32;;;;;;;;;;5013275;28;20028;-70
2022/01/07 00:30:54;;;;;;;16.15;6.03;;;;;;;;;;5009738;28;20097;-71
2022/01/07 00:33:21;;;;;;;18.08;5.32;;;;;;;;;;5013962;28;20124;-71
2022/01/07 00:35:47;;;;;;;16.20;5.97;;;;;;;;;;5011617;28;20029;-73
2022/01/07 00:38:13;;;;;;;15.50;6.28;;;;;;;;;;5012607;28;20026;-73
2022/01/07 00:40:39;;;;;;;19.20;7.10;;;;;;;;;;5009540;28;20814;-72
2022/01/07 00:43:06;;;;;;;17.33;6.85;;;;;;;;;;5014832;28;20087;-72
2022/01/07 00:45:33;;;;;;;20.02;6.10;;;;;;;;;;5015331;28;20030;-73
2022/01/07 00:47:59;;;;;;;13.65;5.30;;;;;;;;;;5012469;28;20056;-73
2022/01/07 00:50:26;;;;;;;14.75;5.57;;;;;;;;;;5010316;28;20096;-73
2022/01/07 00:52:52;;;;;;;10.40;5.85;;;;;;;;;;5011187;28;20041;-73
2022/01/07 00:55:18;;;;;;;15.70;6.03;;;;;;;;;;4995379;28;20104;-74
2022/01/07 00:57:44;;;;;;;19.85;6.97;;;;;;;;;;5010363;28;20673;-73
2022/01/07 01:00:15;;;;;;;14.70;6.97;;;;;;;;;;5010879;28;20022;-74
2022/01/07 01:02:41;;;;;;;21.05;6.82;;;;;;;;;;4989848;28;20120;-72
2022/01/07 01:05:10;;;;;;;14.13;5.88;;;;;;;;;;5017808;28;20112;-72
2022/01/07 01:07:36;;;;;;;15.75;7.07;;;;;;;;;;5012644;28;20407;-72
2022/01/07 01:10:05;;;;;;;17.73;6.75;;;;;;;;;;5004627;28;20109;-71
2022/01/07 01:12:32;;;;;;;12.53;5.80;;;;;;;;;;5030168;28;20440;-73
2022/01/07 01:14:58;;;;;;;16.92;6.78;;;;;;;;;;5024847;28;20479;-71
2022/01/07 01:17:24;;;;;;;14.57;5.50;;;;;;;;;;4993060;28;20092;-74
2022/01/07 01:19:50;;;;;;;15.48;6.82;;;;;;;;;;4997631;28;20049;-73
2022/01/07 01:22:16;;;;;;;12.15;5.00;;;;;;;;;;5010441;28;20113;-72
2022/01/07 01:24:43;;;;;;;19.23;6.65;;;;;;;;;;5015540;28;20072;-71
2022/01/07 01:27:09;;;;;;;15.60;6.93;;;;;;;;;;4997619;28;20136;-72
2022/01/07 01:29:35;;;;;;;22.98;7.10;;;;;;;;;;5011180;28;20173;-73
2022/01/07 01:32:01;;;;;;;16.02;7.53;;;;;;;;;;5022136;28;20032;-73
2022/01/07 01:34:27;;;;;;;13.40;5.57;;;;;;;;;;5026713;28;20485;-74
2022/01/07 01:36:53;;;;;;;16.20;6.47;;;;;;;;;;5002492;28;20080;-74
2022/01/07 01:39:19;;;;;;;18.17;7.05;;;;;;;;;;5020008;28;20040;-70
2022/01/07 01:41:45;;;;;;;14.48;6.00;;;;;;;;;;5020905;28;20018;-72
2022/01/07 01:44:12;;;;;;;18.92;7.38;;;;;;;;;;5010610;28;20064;-72
2022/01/07 01:46:38;;;;;;;13.88;6.50;;;;;;;;;;5020405;28;20121;-71
2022/01/07 01:49:05;;;;;;;10.23;5.80;;;;;;;;;;5008391;28;20480;-71
2022/01/07 01:51:31;;;;;;;24.67;8.82;;;;;;;;;;5013586;28;21240;-73
2022/01/07 01:53:57;;;;;;;16.85;6.03;;;;;;;;;;5011258;28;20132;-71
2022/01/07 01:56:23;;;;;;;11.10;6.03;;;;;;;;;;5016555;28;20515;-71
2022/01/07 01:58:49;;;;;;;17.38;7.55;;;;;;;;;;5010956;28;20112;-71
2022/01/07 02:01:15;;;;;;;13.88;5.75;;;;;;;;;;5018267;28;20029;-72
2022/01/07 02:03:41;;;;;;;16.73;6.53;;;;;;;;;;5008804;28;20029;-72
2022/01/07 02:06:07;;;;;;;17.70;7.68;;;;;;;;;;4994357;28;20109;-72
2022/01/07 02:08:36;;;;;;;13.75;6.97;;;;;;;;;;5013776;28;20101;-73
2022/01/07 02:11:02;;;;;;;17.80;6.63;;;;;;;;;;4986617;28;20133;-72
2022/01/07 02:13:29;;;;;;;14.98;5.70;;;;;;;;;;5015772;28;20140;-72
2022/01/07 02:15:55;;;;;;;21.20;7.50;;;;;;;;;;5009195;28;20053;-72
2022/01/07 02:18:21;;;;;;;19.67;7.18;;;;;;;;;;5018402;28;20032;-71
2022/01/07 02:20:48;;;;;;;17.98;7.10;;;;;;;;;;5010372;28;20022;-71
2022/01/07 02:23:14;;;;;;;18.40;6.22;;;;;;;;;;5020565;28;20061;-72
2022/01/07 02:25:42;;;;;;;14.23;5.68;;;;;;;;;;5010896;28;20041;-73
2022/01/07 02:28:08;;;;;;;15.98;6.35;;;;;;;;;;5023128;28;20018;-71
2022/01/07 02:30:34;;;;;;;12.68;6.43;;;;;;;;;;5006338;28;20404;-71
2022/01/07 02:33:01;;;;;;;17.58;6.57;;;;;;;;;;5020422;28;20029;-70
2022/01/07 02:35:28;;;;;;;15.27;6.20;;;;;;;;;;5011955;28;20068;-70
2022/01/07 02:37:55;;;;;;;17.30;7.15;;;;;;;;;;4998186;28;20415;-69
2022/01/07 02:40:21;;;;;;;12.55;5.70;;;;;;;;;;5010553;28;20846;-70
2022/01/07 02:42:47;;;;;;;13.63;5.68;;;;;;;;;;5017077;28;20026;-71
2022/01/07 02:45:14;;;;;;;12.10;6.03;;;;;;;;;;5027222;28;20029;-70
2022/01/07 02:47:53;;;;;;;15.23;7.15;;;;;;;;;;5024531;28;20061;-72
2022/01/07 02:50:21;;;;;;;15.30;5.95;;;;;;;;;;5010584;28;20443;-70
2022/01/07 02:52:48;;;;;;;14.68;6.15;;;;;;;;;;5017111;28;20021;-71
2022/01/07 02:55:14;;;;;;;17.38;7.03;;;;;;;;;;5012191;28;20085;-70
2022/01/07 02:57:40;;;;;;;10.40;5.13;;;;;;;;;;5014498;28;20387;-69
2022/01/07 03:00:07;;;;;;;12.52;5.22;;;;;;;;;;5015073;28;20342;-69
2022/01/07 03:02:33;;;;;;;17.27;5.90;;;;;;;;;;5007570;28;20064;-68
2022/01/07 03:04:59;;;;;;;17.45;7.75;;;;;;;;;;5013713;28;20139;-69
2022/01/07 03:07:25;;;;;;;14.43;5.72;;;;;;;;;;5027176;28;20108;-69
2022/01/07 03:09:51;;;;;;;9.75;5.25;;;;;;;;;;4999668;28;20452;-71
2022/01/07 03:12:17;;;;;;;14.98;5.40;;;;;;;;;;5026213;28;20070;-72
2022/01/07 03:14:43;;;;;;;17.15;5.53;;;;;;;;;;5025981;28;20025;-72
2022/01/07 03:17:09;;;;;;;12.55;5.38;;;;;;;;;;5028050;28;20577;-72
2022/01/07 03:19:35;;;;;;;15.63;4.80;;;;;;;;;;5021078;28;20014;-75
2022/01/07 03:22:01;;;;;;;17.15;5.47;;;;;;;;;;5008361;28;20147;-71
2022/01/07 03:24:27;;;;;;;10.25;4.78;;;;;;;;;;4995214;28;20503;-72
2022/01/07 03:26:53;;;;;;;27.33;6.53;;;;;;;;;;5027547;28;20026;-71
2022/01/07 03:29:19;;;;;;;13.30;5.82;;;;;;;;;;5016715;28;20049;-72
2022/01/07 03:31:45;;;;;;;16.35;5.35;;;;;;;;;;5007881;28;20059;-70
2022/01/07 03:34:11;;;;;;;13.95;5.25;;;;;;;;;;4990995;28;20054;-70
2022/01/07 03:36:38;;;;;;;13.23;5.50;;;;;;;;;;5006326;28;20137;-70
2022/01/07 03:39:06;;;;;;;12.15;5.25;;;;;;;;;;5021498;28;20018;-71
2022/01/07 03:41:32;;;;;;;14.02;5.97;;;;;;;;;;4990442;28;20052;-69
2022/01/07 03:43:58;;;;;;;12.57;4.60;;;;;;;;;;5011802;28;20484;-71
2022/01/07 03:46:24;;;;;;;16.42;6.35;;;;;;;;;;5019501;28;20030;-72
2022/01/07 03:48:50;;;;;;;12.25;5.35;;;;;;;;;;5015560;28;20100;-72
2022/01/07 03:51:16;;;;;;;11.73;5.50;;;;;;;;;;4996406;28;20061;-74
2022/01/07 03:53:42;;;;;;;11.68;4.78;;;;;;;;;;5009081;28;20223;-71
2022/01/07 03:56:11;;;;;;;14.30;4.93;;;;;;;;;;5016094;28;20658;-72
2022/01/07 03:58:38;;;;;;;13.45;5.32;;;;;;;;;;5027190;28;20048;-72
2022/01/07 04:01:04;;;;;;;12.43;5.05;;;;;;;;;;4994933;28;20056;-71
2022/01/07 04:03:30;;;;;;;10.90;5.13;;;;;;;;;;5012189;28;20038;-71
2022/01/07 04:05:56;;;;;;;11.07;4.65;;;;;;;;;;5013776;28;20395;-72
2022/01/07 04:08:22;;;;;;;9.80;4.78;;;;;;;;;;5027528;28;20033;-71
2022/01/07 04:10:48;;;;;;;8.45;3.80;;;;;;;;;;5014738;28;20026;-70
2022/01/07 04:13:14;;;;;;;9.48;4.88;;;;;;;;;;5019100;28;20080;-71
2022/01/07 04:15:40;;;;;;;13.70;4.57;;;;;;;;;;5015312;28;20502;-71
2022/01/07 04:18:06;;;;;;;14.00;4.65;;;;;;;;;;5028114;28;20453;-72
2022/01/07 04:20:33;;;;;;;10.25;4.65;;;;;;;;;;5023721;28;20480;-72
2022/01/07 04:23:00;;;;;;;15.60;5.43;;;;;;;;;;5013338;28;20017;-73
2022/01/07 04:25:26;;;;;;;11.45;5.10;;;;;;;;;;5015125;28;20396;-71
2022/01/07 04:27:59;;;;;;;13.18;5.55;;;;;;;;;;5023120;28;20025;-72
2022/01/07 04:30:29;;;;;;;10.20;5.05;;;;;;;;;;5008971;28;20168;-70
2022/01/07 04:32:58;;;;;;;9.40;5.97;;;;;;;;;;5004011;28;20023;-71
2022/01/07 04:35:25;;;;;;;12.88;5.28;;;;;;;;;;5028936;28;20083;-71
2022/01/07 04:37:51;;;;;;;11.68;5.80;;;;;;;;;;5001449;28;20033;-72
2022/01/07 04:40:18;;;;;;;12.43;5.28;;;;;;;;;;5028678;28;20148;-73
2022/01/07 04:42:44;;;;;;;13.32;5.20;;;;;;;;;;5008773;28;20061;-72
2022/01/07 04:45:12;;;;;;;9.63;4.88;;;;;;;;;;4993488;28;20078;-73
2022/01/07 04:47:38;;;;;;;14.50;5.22;;;;;;;;;;5026482;28;20383;-71
2022/01/07 04:50:09;;;;;;;10.98;5.97;;;;;;;;;;5030227;28;20052;-72
2022/01/07 04:52:35;;;;;;;9.48;5.32;;;;;;;;;;5016530;28;20030;-72
2022/01/07 04:55:01;;;;;;;7.70;4.72;;;;;;;;;;5030153;28;20037;-71
2022/01/07 04:57:27;;;;;;;8.07;4.47;;;;;;;;;;5016575;28;20052;-72
2022/01/07 04:59:53;;;;;;;10.10;5.35;;;;;;;;;;5030089;28;20474;-72
2022/01/07 05:02:20;;;;;;;14.00;5.90;;;;;;;;;;5020010;28;20110;-71
2022/01/07 05:04:46;;;;;;;11.85;6.18;;;;;;;;;;5028109;28;20057;-72
2022/01/07 05:07:12;;;;;;;13.05;6.45;;;;;;;;;;5021893;28;20110;-72
2022/01/07 05:09:39;;;;;;;11.38;6.07;;;;;;;;;;5025663;28;20067;-72
2022/01/07 05:12:05;;;;;;;9.73;5.40;;;;;;;;;;5020191;28;20193;-68
2022/01/07 05:14:33;;;;;;;9.73;5.60;;;;;;;;;;5016295;28;20025;-72
2022/01/07 05:16:59;;;;;;;14.98;6.57;;;;;;;;;;5026130;28;20567;-70
2022/01/07 05:19:25;;;;;;;16.58;5.70;;;;;;;;;;4992623;28;20518;-71
2022/01/07 05:21:51;;;;;;;9.88;5.32;;;;;;;;;;5010156;28;20096;-70
2022/01/07 05:24:17;;;;;;;13.65;6.43;;;;;;;;;;5008529;28;20026;-70
2022/01/07 05:26:43;;;;;;;10.07;5.57;;;;;;;;;;5009900;28;20046;-71
2022/01/07 05:29:09;;;;;;;14.95;6.72;;;;;;;;;;5011554;28;20026;-71
2022/01/07 05:31:35;;;;;;;10.75;5.65;;;;;;;;;;5009024;28;20029;-71
2022/01/07 05:34:01;;;;;;;11.23;6.25;;;;;;;;;;5010590;28;20415;-73
2022/01/07 05:36:27;;;;;;;9.85;5.75;;;;;;;;;;5008935;28;20033;-70
2022/01/07 05:38:53;;;;;;;10.10;6.82;;;;;;;;;;4996662;28;20026;-70
2022/01/07 05:41:20;;;;;;;11.23;5.97;;;;;;;;;;5008884;28;20096;-72
2022/01/07 05:43:46;;;;;;;9.57;5.80;;;;;;;;;;5007331;28;20098;-71
2022/01/07 05:46:14;;;;;;;9.70;5.95;;;;;;;;;;4993601;28;20065;-72
2022/01/07 05:48:45;;;;;;;10.63;6.47;;;;;;;;;;5011037;28;20076;-69
2022/01/07 05:51:11;;;;;;;11.18;6.50;;;;;;;;;;5009880;28;20069;-70
2022/01/07 05:53:37;;;;;;;12.65;7.38;;;;;;;;;;5009980;28;20144;-71
2022/01/07 05:56:04;;;;;;;9.25;6.25;;;;;;;;;;5010576;28;20124;-72
2022/01/07 05:58:30;;;;;;;10.88;6.75;;;;;;;;;;5012297;28;20045;-72
2022/01/07 06:00:56;;;;;;;12.25;6.53;;;;;;;;;;4991608;28;20054;-72
2022/01/07 06:03:22;;;;;;;12.32;8.07;;;;;;;;;;4992010;28;20029;-70
2022/01/07 06:05:48;;;;;;;17.17;8.45;;;;;;;;;;5012715;28;20505;-71
2022/01/07 06:08:14;;;;;;;19.88;7.43;;;;;;;;;;5010877;28;20096;-71
2022/01/07 06:10:40;;;;;;;13.73;8.70;;;;;;;;;;5011192;28;20050;-70
2022/01/07 06:13:07;;;;;;;14.60;9.48;;;;;;;;;;5008139;28;20060;-72
2022/01/07 06:15:33;;;;;;;23.83;9.43;;;;;;;;;;5013536;28;20026;-72
2022/01/07 06:17:59;;;;;;;15.32;8.32;;;;;;;;;;5007867;28;20462;-73
2022/01/07 06:20:26;;;;;;;18.63;9.45;;;;;;;;;;5010304;28;20502;-71
2022/01/07 06:22:52;;;;;;;16.67;8.82;;;;;;;;;;5007467;28;20025;-72
2022/01/07 06:25:18;;;;;;;17.35;10.15;;;;;;;;;;4992730;28;20471;-72
2022/01/07 06:27:44;;;;;;;17.20;11.25;;;;;;;;;;5007676;28;20683;-71
2022/01/07 06:30:10;;;;;;;15.82;9.68;;;;;;;;;;5010790;28;20033;-72
2022/01/07 06:32:43;;;;;;;21.15;12.57;;;;;;;;;;5007937;28;20053;-71
2022/01/07 06:35:11;;;;;;;16.95;11.00;;;;;;;;;;5007424;28;20033;-72
2022/01/07 06:37:38;;;;;;;22.65;11.23;;;;;;;;;;4988746;28;20026;-73
2022/01/07 06:40:06;;;;;;;21.45;13.27;;;;;;;;;;5010288;28;20058;-72
2022/01/07 06:42:32;;;;;;;17.75;12.30;;;;;;;;;;4990674;28;20108;-73
2022/01/07 06:44:58;;;;;;;14.73;8.48;;;;;;;;;;5007314;28;20041;-73
2022/01/07 06:47:25;;;;;;;17.77;13.02;;;;;;;;;;5006486;28;20096;-73
2022/01/07 06:49:51;;;;;;;20.48;12.35;;;;;;;;;;5009011;28;20032;-72
2022/01/07 06:52:17;;;;;;;26.58;12.25;;;;;;;;;;5008168;28;20018;-71
2022/01/07 06:54:43;;;;;;;22.77;13.35;;;;;;;;;;5007329;28;21410;-72
2022/01/07 06:57:09;;;;;;;21.50;12.38;;;;;;;;;;4986752;28;20026;-71
2022/01/07 06:59:35;;;;;;;23.38;13.77;;;;;;;;;;4990142;28;20130;-71
2022/01/07 07:02:01;;;;;;;23.00;13.80;;;;;;;;;;5005803;28;20052;-72
2022/01/07 07:13:38;;;;;;;25.08;13.43;;;;;;;;;;5018218;28;20051;-71
2022/01/07 07:16:04;;;;;;;22.77;13.85;;;;;;;;;;5023553;28;20026;-71
2022/01/07 07:18:30;;;;;;;20.70;14.07;;;;;;;;;;5019884;28;20132;-72
2022/01/07 07:20:58;;;;;;;32.42;16.30;;;;;;;;;;5018476;28;20463;-73
2022/01/07 07:29:31;;;;;;;23.40;13.73;;;;;;;;;;5028919;28;20366;-71
2022/01/07 07:31:59;;;;;;;18.45;12.75;;;;;;;;;;5023267;28;20112;-72
2022/01/07 07:34:44;;;;;;;22.65;13.45;;;;;;;;;;4994122;28;20411;-71
2022/01/07 07:46:12;;;;;;;25.15;14.20;;;;;;;;;;5008489;28;20056;-74
2022/01/07 07:48:38;;;;;;;22.83;13.30;;;;;;;;;;5021198;28;20411;-71
2022/01/07 07:51:04;;;;;;;26.10;13.93;;;;;;;;;;5010556;28;20259;-71
2022/01/07 07:53:30;;;;;;;21.45;13.63;;;;;;;;;;5004879;28;20718;-71
2022/01/07 08:18:55;;;;;;;21.88;14.05;;;;;;;;;;5007801;28;20072;-72
2022/01/07 10:52:24;;;;;;;22.98;11.85;;;;;;;;;;5056654;28;20487;-73
2022/01/07 10:55:12;;;;;;;17.13;10.55;;;;;;;;;;5054703;28;20024;-73
2022/01/07 10:57:44;;;;;;;20.75;12.07;;;;;;;;;;5054061;28;20028;-74
2022/01/07 11:00:18;;;;;;;18.33;10.93;;;;;;;;;;5058158;28;20077;-74
2022/01/07 11:02:46;;;;;;;18.10;10.43;;;;;;;;;;5054908;28;20815;-71
2022/01/07 11:05:12;;;;;;;20.67;10.80;;;;;;;;;;5057403;28;20025;-71
2022/01/07 11:07:38;;;;;;;16.13;10.15;;;;;;;;;;5054251;28;20103;-73
2022/01/07 11:10:06;;;;;;;20.42;10.27;;;;;;;;;;5055419;28;20043;-72
2022/01/07 11:12:33;;;;;;;15.57;10.38;;;;;;;;;;5057777;28;20030;-72
2022/01/07 11:14:59;;;;;;;18.42;9.88;;;;;;;;;;5046956;28;20491;-71
2022/01/07 11:17:26;;;;;;;17.10;8.55;;;;;;;;;;5037556;28;20029;-73
2022/01/07 11:19:57;;;;;;;16.58;9.20;;;;;;;;;;5036260;28;20080;-71
2022/01/07 11:22:24;;;;;;;15.80;9.45;;;;;;;;;;5037862;28;20032;-73
2022/01/07 11:25:11;;;;;;;20.52;9.43;;;;;;;;;;5036596;28;20096;-72
2022/01/07 11:27:47;;;;;;;17.90;9.13;;;;;;;;;;5036116;28;20041;-72
2022/01/07 11:30:15;;;;;;;15.30;8.93;;;;;;;;;;5036638;28;20559;-71
2022/01/07 11:32:44;;;;;;;17.45;8.52;;;;;;;;;;5036005;28;20017;-72
2022/01/07 11:35:19;;;;;;;13.93;8.60;;;;;;;;;;5035786;28;20160;-73
2022/01/07 11:37:46;;;;;;;18.17;9.00;;;;;;;;;;5034776;28;20035;-72
2022/01/07 11:40:31;;;;;;;19.38;9.32;;;;;;;;;;5037080;28;20438;-72
2022/01/07 11:42:57;;;;;;;25.83;9.18;;;;;;;;;;5058918;28;20430;-71
2022/01/07 11:45:29;;;;;;;19.15;8.38;;;;;;;;;;5037433;28;20102;-71
2022/01/07 11:48:14;;;;;;;17.88;7.68;;;;;;;;;;5037790;28;20025;-72
2022/01/07 11:50:46;;;;;;;15.07;8.23;;;;;;;;;;5038938;28;20045;-74
2022/01/07 11:53:13;;;;;;;14.52;7.53;;;;;;;;;;5044029;28;20037;-72
2022/01/07 11:55:39;;;;;;;13.88;7.78;;;;;;;;;;5044069;28;20017;-71
2022/01/07 11:58:10;;;;;;;14.88;6.80;;;;;;;;;;5044101;28;20026;-71
2022/01/07 12:00:53;;;;;;;13.25;6.63;;;;;;;;;;5041726;28;20025;-71
2022/01/07 12:03:38;;;;;;;19.90;7.85;;;;;;;;;;5032992;28;20021;-73
2022/01/07 12:06:29;;;;;;;16.67;6.82;;;;;;;;;;5030360;28;20033;-72
2022/01/07 12:09:19;;;;;;;15.50;6.88;;;;;;;;;;5024804;28;20488;-72
2022/01/07 12:11:48;;;;;;;14.55;6.10;;;;;;;;;;5023445;28;20594;-73
2022/01/07 12:14:24;;;;;;;12.70;5.45;;;;;;;;;;5009133;28;20045;-72
2022/01/07 12:16:58;;;;;;;13.65;6.47;;;;;;;;;;5024649;28;20104;-76
2022/01/07 12:19:33;;;;;;;13.23;6.22;;;;;;;;;;5023980;28;23092;-74
2022/01/07 12:21:59;;;;;;;13.95;5.18;;;;;;;;;;5024190;28;20436;-74
2022/01/07 12:24:29;;;;;;;14.77;5.75;;;;;;;;;;5024626;28;20036;-73
2022/01/07 12:26:55;;;;;;;;;;;;;;;;;;5022400;28;20109;-74
2022/01/07 12:29:22;;;;;;;19.65;5.35;;;;;;;;;;5025021;28;20003;-73
2022/01/07 12:31:52;;;;;;;14.25;5.32;;;;;;;;;;5024675;28;20484;-74
2022/01/07 12:34:29;;;;;;;15.73;6.32;;;;;;;;;;5023009;28;20051;-74
2022/01/07 12:36:59;;;;;;;10.38;5.03;;;;;;;;;;5020766;28;20129;-75
2022/01/07 12:39:26;;;;;;;12.93;5.32;;;;;;;;;;5023514;28;20060;-75
2022/01/07 12:41:54;;;;;;;20.02;6.45;;;;;;;;;;5019999;28;20105;-75
2022/01/07 12:44:20;;;;;;;10.02;4.65;;;;;;;;;;5022970;28;20586;-74
2022/01/07 12:46:51;;;;;;;14.57;6.60;;;;;;;;;;5020359;28;20033;-74
2022/01/07 12:49:17;;;;;;;10.75;4.95;;;;;;;;;;5021173;28;20032;-75
2022/01/07 12:51:43;;;;;;;14.82;6.22;;;;;;;;;;5021936;28;20058;-75
2022/01/07 12:54:11;;;;;;;12.57;5.90;;;;;;;;;;5023087;28;20120;-75
2022/01/07 12:56:38;;;;;;;10.43;5.35;;;;;;;;;;5023260;28;20029;-76
2022/01/07 12:59:13;;;;;;;11.57;6.18;;;;;;;;;;5024001;28;20491;-75
2022/01/07 13:01:39;;;;;;;14.82;6.72;;;;;;;;;;5026611;28;20033;-75
2022/01/07 13:04:05;;;;;;;11.05;5.32;;;;;;;;;;5030075;28;20017;-76
2022/01/07 13:06:32;;;;;;;12.35;6.05;;;;;;;;;;5030581;28;20022;-75
2022/01/07 13:08:58;;;;;;;14.27;7.18;;;;;;;;;;5028159;28;20136;-74
2022/01/07 13:11:30;;;;;;;14.75;6.32;;;;;;;;;;5029526;28;20511;-74
2022/01/07 13:14:05;;;;;;;13.20;5.60;;;;;;;;;;5023864;28;20388;-72
2022/01/07 13:16:33;;;;;;;11.18;6.68;;;;;;;;;;5010509;28;20044;-75
2022/01/07 13:19:04;;;;;;;19.60;6.03;;;;;;;;;;5027642;28;20029;-74
2022/01/07 13:21:30;;;;;;;10.93;5.55;;;;;;;;;;5014254;28;20025;-74
2022/01/07 13:23:57;;;;;;;13.60;6.32;;;;;;;;;;5019863;28;20013;-75
2022/01/07 13:26:26;;;;;;;12.95;7.10;;;;;;;;;;5017158;28;20022;-74
2022/01/07 13:28:53;;;;;;;15.85;6.15;;;;;;;;;;5023468;28;20053;-74
2022/01/07 13:31:30;;;;;;;19.00;6.82;;;;;;;;;;5023587;28;20105;-75
2022/01/07 13:33:56;;;;;;;14.10;6.00;;;;;;;;;;5023698;28;20026;-75
2022/01/07 13:36:22;;;;;;;17.40;6.97;;;;;;;;;;5019959;28;20040;-75
2022/01/07 13:38:59;;;;;;;14.68;5.88;;;;;;;;;;5025363;28;20434;-75
2022/01/07 13:41:26;;;;;;;14.05;6.60;;;;;;;;;;5021989;28;20144;-73
2022/01/07 13:43:53;;;;;;;12.75;6.93;;;;;;;;;;5014700;28;20017;-74
2022/01/07 13:46:21;;;;;;;8.25;2.20;;;;;;;;;;5022367;28;20539;-71
2022/01/07 13:48:48;;;;;;;6.95;1.90;;;;;;;;;;5021834;28;20115;-70
2022/01/07 13:51:14;;;;;;;3.83;1.27;;;;;;;;;;5022474;28;20132;-70
2022/01/07 13:53:40;;;;;;;6.07;1.80;;;;;;;;;;5021885;28;20136;-70
2022/01/07 13:56:06;;;;;;;4.90;1.75;;;;;;;;;;5021508;28;20029;-71
2022/01/07 13:58:32;;;;;;;9.85;1.88;;;;;;;;;;5019521;28;20122;-70
2022/01/07 14:01:04;;;;;;;5.47;1.95;;;;;;;;;;5022472;28;20494;-76
2022/01/07 14:03:47;;;;;;;4.30;1.27;;;;;;;;;;5020949;28;20112;-71
2022/01/07 14:06:13;;;;;;;5.35;1.42;;;;;;;;;;5021341;28;20421;-71
2022/01/07 14:08:39;;;;;;;6.55;1.55;;;;;;;;;;5023037;28;20021;-74
2022/01/07 14:11:13;;;;;;;5.43;1.13;;;;;;;;;;5020216;28;20045;-73
2022/01/07 14:13:39;;;;;;;2.83;2.03;;;;;;;;;;5022247;28;20476;-74
2022/01/07 14:16:06;;;;;;;13.35;9.50;;;;;;;;;;5021213;28;20064;-75
2022/01/07 14:18:34;;;;;;;7.78;6.38;;;;;;;;;;5023177;28;20038;-75
2022/01/07 14:21:06;;;;;;;8.45;7.65;;;;;;;;;;5019291;28;20537;-75
2022/01/07 14:23:33;;;;;;;8.00;3.47;;;;;;;;;;5020279;28;20512;-75
2022/01/07 14:26:09;;;;;;;5.80;1.60;;;;;;;;;;5021004;28;20112;-75
2022/01/07 14:28:42;;;;;;;6.40;1.85;;;;;;;;;;5021444;28;20030;-73
2022/01/07 14:31:09;;;;;;;4.35;1.67;;;;;;;;;;5021318;28;20037;-74
2022/01/07 14:33:36;;;;;;;8.32;3.90;;;;;;;;;;5020472;28;20049;-75
2022/01/07 14:36:03;;;;;;;5.35;1.42;;;;;;;;;;5020909;28;20045;-74
2022/01/07 14:38:29;;;;;;;4.80;1.38;;;;;;;;;;5019648;28;20029;-74
2022/01/07 14:40:55;;;;;;;9.50;1.65;;;;;;;;;;5022118;28;20056;-73
2022/01/07 14:43:21;;;;;;;4.40;1.20;;;;;;;;;;5022552;28;20092;-72
2022/01/07 14:45:48;;;;;;;6.97;1.00;;;;;;;;;;5020972;28;20442;-73
2022/01/07 14:48:14;;;;;;;6.95;3.22;;;;;;;;;;5019837;28;20025;-73
2022/01/07 14:50:40;;;;;;;19.75;6.32;;;;;;;;;;5020204;28;20429;-72
2022/01/07 14:53:06;;;;;;;12.18;5.45;;;;;;;;;;5021553;28;20105;-72
2022/01/07 14:55:34;;;;;;;12.85;5.95;;;;;;;;;;5018830;28;20034;-74
2022/01/07 14:58:01;;;;;;;7.28;2.38;;;;;;;;;;4997233;28;20086;-74
2022/01/07 15:00:28;;;;;;;5.47;1.25;;;;;;;;;;5021816;28;20527;-72
2022/01/07 15:02:54;;;;;;;4.93;1.05;;;;;;;;;;5022981;28;20029;-72
2022/01/07 15:05:22;;;;;;;12.68;2.65;;;;;;;;;;5019666;28;20038;-73
2022/01/07 15:07:48;;;;;;;7.50;1.90;;;;;;;;;;5020480;28;20029;-74
2022/01/07 15:10:14;;;;;;;5.85;1.52;;;;;;;;;;5021914;28;20167;-73
2022/01/07 15:12:44;;;;;;;8.80;3.90;;;;;;;;;;5020922;28;20033;-70
2022/01/07 15:17:55;;;;;;;5.28;1.00;;;;;;;;;;5022617;28;20399;-70
2022/01/07 15:20:21;;;;;;;4.65;1.77;;;;;;;;;;5018706;28;20120;-69
2022/01/07 15:22:47;;;;;;;7.13;0.93;;;;;;;;;;5022033;28;20057;-73
2022/01/07 15:25:13;;;;;;;7.80;1.27;;;;;;;;;;5021562;28;20033;-73
2022/01/07 15:27:39;;;;;;;3.25;0.95;;;;;;;;;;5019087;28;20125;-73
2022/01/07 15:30:06;;;;;;;5.18;0.90;;;;;;;;;;5020865;28;20041;-74
2022/01/07 15:32:34;;;;;;;6.97;2.38;;;;;;;;;;5023651;28;20393;-74
2022/01/07 15:35:08;;;;;;;3.90;1.33;;;;;;;;;;5022589;28;20041;-72
2022/01/07 15:37:36;;;;;;;8.57;1.45;;;;;;;;;;5019827;28;20022;-73
2022/01/07 15:40:02;;;;;;;6.00;1.77;;;;;;;;;;5025581;28;20128;-73
2022/01/07 15:42:28;;;;;;;7.93;1.30;;;;;;;;;;5019811;28;20566;-73
2022/01/07 15:44:54;;;;;;;7.20;1.55;;;;;;;;;;5024451;28;20567;-72
2022/01/07 15:47:20;;;;;;;5.95;1.50;;;;;;;;;;5026215;28;20061;-74
2022/01/07 15:49:54;;;;;;;9.43;1.60;;;;;;;;;;5024812;28;20095;-72
2022/01/07 15:52:24;;;;;;;5.90;1.30;;;;;;;;;;5023724;28;20053;-73
2022/01/07 15:54:55;;;;;;;6.78;2.28;;;;;;;;;;5025052;28;20028;-72
2022/01/07 15:57:22;;;;;;;7.28;1.48;;;;;;;;;;5025448;28;20735;-73
2022/01/07 15:59:49;;;;;;;4.45;0.98;;;;;;;;;;5023826;28;20029;-72
2022/01/07 16:02:15;;;;;;;5.57;1.15;;;;;;;;;;5025046;28;20109;-72
2022/01/07 16:04:41;;;;;;;6.20;1.60;;;;;;;;;;5024941;28;20820;-73
2022/01/07 16:07:07;;;;;;;3.45;0.90;;;;;;;;;;5021513;28;20033;-70
2022/01/07 16:09:33;;;;;;;5.18;1.23;;;;;;;;;;5026029;28;20079;-73
2022/01/07 16:11:59;;;;;;;14.82;2.75;;;;;;;;;;5021202;28;20571;-72
2022/01/07 16:14:25;;;;;;;6.43;3.28;;;;;;;;;;5021911;28;20185;-73
2022/01/07 16:16:51;;;;;;;12.50;2.63;;;;;;;;;;5025634;28;20037;-72
2022/01/07 16:19:19;;;;;;;8.68;2.88;;;;;;;;;;5023346;28;20108;-73
2022/01/07 16:21:45;;;;;;;9.13;2.63;;;;;;;;;;5025797;28;20104;-73
2022/01/07 16:24:12;;;;;;;8.18;2.28;;;;;;;;;;5026740;28;21208;-73
2022/01/07 16:26:40;;;;;;;11.77;1.77;;;;;;;;;;5024798;28;20069;-71
2022/01/07 16:30:07;;;;;;;7.90;2.22;;;;;;;;;;5021466;28;20111;-73
2022/01/07 16:32:14;;;;;;;6.35;2.10;;;;;;;;;;5027014;28;20037;-73
2022/01/07 16:34:41;;;;;;;7.40;1.90;;;;;;;;;;5024135;28;20028;-72
2022/01/07 16:37:16;;;;;;;8.75;2.80;;;;;;;;;;5025670;28;20026;-71
2022/01/07 16:39:43;;;;;;;8.43;2.92;;;;;;;;;;5025245;28;20025;-72
2022/01/07 16:42:16;;;;;;;7.72;1.83;;;;;;;;;;5022793;28;20033;-71
2022/01/07 16:44:42;;;;;;;8.50;2.40;;;;;;;;;;5027089;28;20083;-72
2022/01/07 16:47:08;;;;;;;4.78;2.17;;;;;;;;;;5028448;28;20029;-72
2022/01/07 16:49:36;;;;;;;8.73;2.25;;;;;;;;;;5025579;28;20029;-73
2022/01/07 16:52:02;;;;;;;4.93;1.95;;;;;;;;;;5024227;28;20054;-72
2022/01/07 16:54:29;;;;;;;5.45;2.03;;;;;;;;;;5023614;28;20044;-72
2022/01/07 16:56:58;;;;;;;7.80;2.05;;;;;;;;;;5023301;28;20033;-72
2022/01/07 16:59:24;;;;;;;6.68;2.58;;;;;;;;;;5024798;28;20057;-71
2022/01/07 17:01:51;;;;;;;7.50;2.30;;;;;;;;;;5023173;28;20088;-73
2022/01/07 17:04:17;;;;;;;7.70;2.75;;;;;;;;;;5024336;28;21314;-71
2022/01/07 17:06:44;;;;;;;5.57;2.70;;;;;;;;;;5022714;28;20048;-72
2022/01/07 17:09:09;;;;;;;7.57;3.03;;;4.80;94.10;;;;;;5022674;28;20040;-72
2022/01/07 17:11:35;;;;;;;9.80;3.22;;;4.90;93.80;;;;;;5028532;28;20021;-72
2022/01/07 17:14:03;;;;;;;8.60;2.53;;;4.80;92.40;;;;;;5028907;28;20033;-71
2022/01/07 17:16:35;;;;;;;13.27;3.35;;;4.80;92.10;;;;;;5028825;28;20020;-72
2022/01/07 17:19:00;;;;;;;8.63;2.60;;;4.80;92.20;;;;;;5030500;28;20057;-72
2022/01/07 17:21:26;;;;;;;8.18;2.92;;;4.80;91.80;;;;;;5030361;28;20612;-72
2022/01/07 17:23:53;;;;;;;9.25;3.17;;;4.80;91.90;;;;;;5027387;28;20482;-72
2022/01/07 17:26:19;;;;;;;4.30;2.08;;;4.70;91.90;;;;;;5030083;28;20057;-72
2022/01/07 17:28:44;;;;;;;8.55;3.13;;;4.80;94.70;;;;;;5029872;28;20029;-72
2022/01/07 17:31:10;;;;;;;7.95;1.90;;;4.80;92.80;;;;;;5029513;28;20222;-72
2022/01/07 17:33:36;;;;;;;6.45;2.00;;;4.70;92.00;;;;;;5030926;28;20053;-71
2022/01/07 17:36:03;;;;;;;9.18;2.40;;;4.60;91.90;;;;;;5029088;28;20808;-72
2022/01/07 17:38:29;;;;;;;8.32;2.08;;;4.60;92.00;;;;;;5030061;28;20041;-72
2022/01/07 17:40:54;;;;;;;6.25;2.20;;;4.50;92.60;;;;;;5030137;28;20136;-72
2022/01/07 17:43:22;;;;;;;9.77;2.65;;;4.50;92.20;;;;;;5031729;28;20017;-72
2022/01/07 17:45:48;;;;;;;5.43;1.90;;;4.50;92.40;;;;;;5032349;28;20037;-73
2022/01/07 17:48:14;;;;;;;4.65;2.30;;;4.50;92.40;;;;;;5028142;28;20025;-71
2022/01/07 17:50:40;;;;;;;6.60;2.13;;;4.50;92.70;;;;;;5027999;28;20512;-72